sensor_id;sensor_type;location;lat;lon;timestamp;pressure;altitude;pressure_sealevel;temperature;humidity
84924;BME280;75286;52.218;5.180;2024-03-23T00:53:26;101105.34;;;7.94;100.00
84924;BME280;75286;52.218;5.180;2024-03-23T00:55:52;101101.81;;;7.95;100.00
84924;BME280;75286;52.218;5.180;2024-03-23T00:58:17;101096.69;;;7.95;100.00
84924;BME280;75286;52.218;5.180;2024-03-23T01:00:43;101089.09;;;7.93;100.00
84924;BME280;75286;52.218;5.180;2024-03-23T01:03:08;101075.25;;;7.86;100.00
84924;BME280;75286;52.218;5.180;2024-03-23T01:05:33;101083.81;;;7.95;100.00
84924;BME280;75286;52.218;5.180;2024-03-23T01:07:59;101064.94;;;7.86;100.00
84924;BME280;75286;52.218;5.180;2024-03-23T01:10:24;101063.81;;;7.80;100.00
84924;BME280;75286;52.218;5.180;2024-03-23T01:12:50;101068.81;;;7.82;100.00
84924;BME280;75286;52.218;5.180;2024-03-23T01:15:15;101081.53;;;7.92;100.00
84924;BME280;75286;52.218;5.180;2024-03-23T01:17:40;101080.06;;;7.89;100.00
84924;BME280;75286;52.218;5.180;2024-03-23T01:20:06;101068.19;;;7.88;100.00
84924;BME280;75286;52.218;5.180;2024-03-23T01:22:32;101063.47;;;7.83;100.00
84924;BME280;75286;52.218;5.180;2024-03-23T01:24:58;101064.94;;;7.86;100.00
84924;BME280;75286;52.218;5.180;2024-03-23T01:27:23;101065.75;;;7.86;100.00
84924;BME280;75286;52.218;5.180;2024-03-23T01:29:48;101053.38;;;7.82;100.00
84924;BME280;75286;52.218;5.180;2024-03-23T01:32:14;101059.13;;;7.84;100.00
84924;BME280;75286;52.218;5.180;2024-03-23T01:34:39;101066.22;;;7.82;100.00
84924;BME280;75286;52.218;5.180;2024-03-23T01:37:05;101045.28;;;7.69;100.00
84924;BME280;75286;52.218;5.180;2024-03-23T01:39:30;101045.28;;;7.69;100.00
84924;BME280;75286;52.218;5.180;2024-03-23T01:41:58;101043.06;;;7.66;100.00
84924;BME280;75286;52.218;5.180;2024-03-23T01:44:25;101045.25;;;7.61;100.00
84924;BME280;75286;52.218;5.180;2024-03-23T01:46:50;101031.25;;;7.55;100.00
84924;BME280;75286;52.218;5.180;2024-03-23T01:49:16;101039.63;;;7.57;100.00
84924;BME280;75286;52.218;5.180;2024-03-23T01:51:42;101035.28;;;7.50;100.00
84924;BME280;75286;52.218;5.180;2024-03-23T01:54:09;101039.31;;;7.52;100.00
84924;BME280;75286;52.218;5.180;2024-03-23T01:56:37;101047.03;;;7.52;100.00
84924;BME280;75286;52.218;5.180;2024-03-23T01:59:07;101024.16;;;7.41;100.00
84924;BME280;75286;52.218;5.180;2024-03-23T02:01:34;101035.28;;;7.41;100.00
84924;BME280;75286;52.218;5.180;2024-03-23T02:04:01;101030.91;;;7.34;100.00
84924;BME280;75286;52.218;5.180;2024-03-23T02:06:27;101032.50;;;7.35;100.00
84924;BME280;75286;52.218;5.180;2024-03-23T02:08:56;101031.84;;;7.33;100.00
84924;BME280;75286;52.218;5.180;2024-03-23T02:11:22;101026.38;;;7.28;100.00
84924;BME280;75286;52.218;5.180;2024-03-23T02:13:48;101031.50;;;7.28;100.00
84924;BME280;75286;52.218;5.180;2024-03-23T02:16:13;101037.47;;;7.28;100.00
84924;BME280;75286;52.218;5.180;2024-03-23T02:18:39;101027.94;;;7.21;100.00
84924;BME280;75286;52.218;5.180;2024-03-23T02:21:04;101027.75;;;7.14;100.00
84924;BME280;75286;52.218;5.180;2024-03-23T02:23:30;101019.28;;;7.14;100.00
84924;BME280;75286;52.218;5.180;2024-03-23T02:25:55;101032.13;;;7.22;100.00
84924;BME280;75286;52.218;5.180;2024-03-23T02:28:20;101014.91;;;7.14;100.00
84924;BME280;75286;52.218;5.180;2024-03-23T02:30:48;101020.53;;;7.10;100.00
84924;BME280;75286;52.218;5.180;2024-03-23T02:33:14;101007.47;;;7.03;99.92
84924;BME280;75286;52.218;5.180;2024-03-23T02:35:39;101008.94;;;7.06;99.84
84924;BME280;75286;52.218;5.180;2024-03-23T02:38:04;101006.38;;;7.06;100.00
84924;BME280;75286;52.218;5.180;2024-03-23T02:40:30;101009.91;;;7.04;99.77
84924;BME280;75286;52.218;5.180;2024-03-23T02:42:55;100990.41;;;6.94;99.81
84924;BME280;75286;52.218;5.180;2024-03-23T02:45:21;101003.59;;;6.99;99.58
84924;BME280;75286;52.218;5.180;2024-03-23T02:47:46;100992.34;;;6.92;99.42
84924;BME280;75286;52.218;5.180;2024-03-23T02:50:12;100999.09;;;6.93;99.17
84924;BME280;75286;52.218;5.180;2024-03-23T02:52:37;100999.09;;;6.93;99.05
84924;BME280;75286;52.218;5.180;2024-03-23T02:55:03;101004.88;;;6.95;99.40
84924;BME280;75286;52.218;5.180;2024-03-23T02:57:29;100991.50;;;6.83;98.79
84924;BME280;75286;52.218;5.180;2024-03-23T02:59:54;100996.31;;;6.86;98.68
84924;BME280;75286;52.218;5.180;2024-03-23T03:02:20;101006.78;;;6.85;98.54
84924;BME280;75286;52.218;5.180;2024-03-23T03:04:46;101006.25;;;6.81;97.18
84924;BME280;75286;52.218;5.180;2024-03-23T03:07:11;101008.84;;;6.81;97.81
84924;BME280;75286;52.218;5.180;2024-03-23T03:09:37;101002.25;;;6.79;97.98
84924;BME280;75286;52.218;5.180;2024-03-23T03:12:05;100997.25;;;6.77;97.44
84924;BME280;75286;52.218;5.180;2024-03-23T03:14:30;101000.78;;;6.76;97.66
84924;BME280;75286;52.218;5.180;2024-03-23T03:16:56;100995.78;;;6.75;97.80
84924;BME280;75286;52.218;5.180;2024-03-23T03:19:24;100992.88;;;6.70;97.50
84924;BME280;75286;52.218;5.180;2024-03-23T03:21:49;100994.00;;;6.67;97.54
84924;BME280;75286;52.218;5.180;2024-03-23T03:24:15;100994.97;;;6.66;97.33
84924;BME280;75286;52.218;5.180;2024-03-23T03:26:40;100987.84;;;6.60;97.24
84924;BME280;75286;52.218;5.180;2024-03-23T03:29:06;100984.81;;;6.56;96.88
84924;BME280;75286;52.218;5.180;2024-03-23T03:31:31;100990.91;;;6.63;96.93
84924;BME280;75286;52.218;5.180;2024-03-23T03:33:57;100992.84;;;6.61;97.04
84924;BME280;75286;52.218;5.180;2024-03-23T03:36:22;100978.03;;;6.55;95.96
84924;BME280;75286;52.218;5.180;2024-03-23T03:38:47;100976.91;;;6.50;96.48
84924;BME280;75286;52.218;5.180;2024-03-23T03:41:13;100977.84;;;6.49;96.59
84924;BME280;75286;52.218;5.180;2024-03-23T03:43:38;100972.84;;;6.47;96.00
84924;BME280;75286;52.218;5.180;2024-03-23T03:46:04;100975.41;;;6.47;96.29
84924;BME280;75286;52.218;5.180;2024-03-23T03:48:31;100978.94;;;6.46;96.41
84924;BME280;75286;52.218;5.180;2024-03-23T03:50:57;100978.13;;;6.46;96.38
84924;BME280;75286;52.218;5.180;2024-03-23T03:53:22;100959.19;;;6.39;96.30
84924;BME280;75286;52.218;5.180;2024-03-23T03:55:48;100963.50;;;6.38;96.65
84924;BME280;75286;52.218;5.180;2024-03-23T03:58:13;100956.41;;;6.32;96.58
84924;BME280;75286;52.218;5.180;2024-03-23T04:00:39;100960.59;;;6.33;96.53
84924;BME280;75286;52.218;5.180;2024-03-23T04:03:05;100960.72;;;6.32;96.85
84924;BME280;75286;52.218;5.180;2024-03-23T04:05:30;100963.31;;;6.32;97.25
84924;BME280;75286;52.218;5.180;2024-03-23T04:07:56;100969.88;;;6.34;96.94
84924;BME280;75286;52.218;5.180;2024-03-23T04:10:23;100959.44;;;6.28;97.23
84924;BME280;75286;52.218;5.180;2024-03-23T04:12:50;100957.97;;;6.25;96.92
84924;BME280;75286;52.218;5.180;2024-03-23T04:15:15;100954.38;;;6.18;97.30
84924;BME280;75286;52.218;5.180;2024-03-23T04:17:41;100959.72;;;6.25;97.28
84924;BME280;75286;52.218;5.180;2024-03-23T04:20:08;100942.31;;;6.10;97.08
84924;BME280;75286;52.218;5.180;2024-03-23T04:22:37;100948.88;;;6.13;97.82
84924;BME280;75286;52.218;5.180;2024-03-23T04:25:05;100953.34;;;6.11;97.80
84924;BME280;75286;52.218;5.180;2024-03-23T04:27:35;100955.56;;;6.06;97.82
84924;BME280;75286;52.218;5.180;2024-03-23T04:30:00;100960.72;;;6.06;98.33
84924;BME280;75286;52.218;5.180;2024-03-23T04:32:27;100953.78;;;5.98;98.07
84924;BME280;75286;52.218;5.180;2024-03-23T04:34:53;100967.78;;;6.04;98.29
84924;BME280;75286;52.218;5.180;2024-03-23T04:37:19;100951.50;;;5.95;98.15
84924;BME280;75286;52.218;5.180;2024-03-23T04:39:45;100959.41;;;6.02;97.82
84924;BME280;75286;52.218;5.180;2024-03-23T04:42:10;100957.44;;;5.96;97.89
84924;BME280;75286;52.218;5.180;2024-03-23T04:44:35;100963.88;;;6.00;97.39
84924;BME280;75286;52.218;5.180;2024-03-23T04:47:01;100938.88;;;5.84;97.46
84924;BME280;75286;52.218;5.180;2024-03-23T04:49:26;100955.31;;;5.91;96.97
84924;BME280;75286;52.218;5.180;2024-03-23T04:51:52;100951.03;;;5.82;97.08
84924;BME280;75286;52.218;5.180;2024-03-23T04:54:17;100942.84;;;5.78;96.49
84924;BME280;75286;52.218;5.180;2024-03-23T04:56:43;100949.13;;;5.84;96.57
84924;BME280;75286;52.218;5.180;2024-03-23T04:59:11;100939.47;;;5.78;96.73
84924;BME280;75286;52.218;5.180;2024-03-23T05:01:36;100940.06;;;5.72;96.12
84924;BME280;75286;52.218;5.180;2024-03-23T05:04:03;100946.06;;;5.80;96.28
84924;BME280;75286;52.218;5.180;2024-03-23T05:06:29;100933.16;;;5.72;96.55
84924;BME280;75286;52.218;5.180;2024-03-23T05:08:54;100933.03;;;5.74;96.21
84924;BME280;75286;52.218;5.180;2024-03-23T05:11:20;100942.97;;;5.77;96.42
84924;BME280;75286;52.218;5.180;2024-03-23T05:13:46;100950.66;;;5.77;95.86
84924;BME280;75286;52.218;5.180;2024-03-23T05:16:11;100939.91;;;5.73;96.53
84924;BME280;75286;52.218;5.180;2024-03-23T05:18:37;100942.75;;;5.70;96.58
84924;BME280;75286;52.218;5.180;2024-03-23T05:21:02;100939.69;;;5.67;96.47
84924;BME280;75286;52.218;5.180;2024-03-23T05:23:29;100941.44;;;5.66;96.27
84924;BME280;75286;52.218;5.180;2024-03-23T05:25:55;100943.38;;;5.64;95.50
84924;BME280;75286;52.218;5.180;2024-03-23T05:28:24;100951.13;;;5.72;96.60
84924;BME280;75286;52.218;5.180;2024-03-23T05:30:53;100950.03;;;5.75;96.63
84924;BME280;75286;52.218;5.180;2024-03-23T05:33:19;100956.75;;;5.76;96.70
84924;BME280;75286;52.218;5.180;2024-03-23T05:35:45;100948.09;;;5.77;96.99
84924;BME280;75286;52.218;5.180;2024-03-23T05:38:12;100939.25;;;5.71;96.93
84924;BME280;75286;52.218;5.180;2024-03-23T05:40:37;100948.09;;;5.77;96.76
84924;BME280;75286;52.218;5.180;2024-03-23T05:43:06;100947.03;;;5.79;96.38
84924;BME280;75286;52.218;5.180;2024-03-23T05:45:31;100932.66;;;5.69;96.27
84924;BME280;75286;52.218;5.180;2024-03-23T05:47:56;100928.47;;;5.68;96.17
84924;BME280;75286;52.218;5.180;2024-03-23T05:50:22;100940.06;;;5.72;96.56
84924;BME280;75286;52.218;5.180;2024-03-23T05:52:49;100935.06;;;5.70;96.15
84924;BME280;75286;52.218;5.180;2024-03-23T05:55:14;100923.00;;;5.63;96.48
84924;BME280;75286;52.218;5.180;2024-03-23T05:57:39;100932.94;;;5.66;95.97
84924;BME280;75286;52.218;5.180;2024-03-23T06:00:06;100938.53;;;5.61;95.98
84924;BME280;75286;52.218;5.180;2024-03-23T06:02:37;100943.06;;;5.67;96.31
84924;BME280;75286;52.218;5.180;2024-03-23T06:05:02;100943.06;;;5.67;96.35
84924;BME280;75286;52.218;5.180;2024-03-23T06:07:28;100923.13;;;5.61;96.21
84924;BME280;75286;52.218;5.180;2024-03-23T06:09:53;100938.06;;;5.66;96.51
84924;BME280;75286;52.218;5.180;2024-03-23T06:12:18;100944.69;;;5.68;96.51
84924;BME280;75286;52.218;5.180;2024-03-23T06:14:44;100942.75;;;5.70;96.37
84924;BME280;75286;52.218;5.180;2024-03-23T06:17:09;100944.91;;;5.75;96.11
84924;BME280;75286;52.218;5.180;2024-03-23T06:19:34;100940.41;;;5.77;96.30
84924;BME280;75286;52.218;5.180;2024-03-23T06:22:00;100933.06;;;5.82;96.42
84924;BME280;75286;52.218;5.180;2024-03-23T06:24:25;100931.69;;;5.88;95.39
84924;BME280;75286;52.218;5.180;2024-03-23T06:26:50;100943.44;;;5.90;96.05
84924;BME280;75286;52.218;5.180;2024-03-23T06:29:16;100932.09;;;5.93;95.88
84924;BME280;75286;52.218;5.180;2024-03-23T06:31:41;100937.25;;;6.01;95.61
84924;BME280;75286;52.218;5.180;2024-03-23T06:34:07;100929.56;;;6.01;94.99
84924;BME280;75286;52.218;5.180;2024-03-23T06:36:32;100927.69;;;6.11;95.62
84924;BME280;75286;52.218;5.180;2024-03-23T06:38:58;100924.97;;;6.12;95.48
84924;BME280;75286;52.218;5.180;2024-03-23T06:41:24;100930.97;;;6.21;94.85
84924;BME280;75286;52.218;5.180;2024-03-23T06:43:49;100917.81;;;6.16;94.21
84924;BME280;75286;52.218;5.180;2024-03-23T06:46:14;100927.81;;;6.27;94.64
84924;BME280;75286;52.218;5.180;2024-03-23T06:48:40;100923.31;;;6.29;93.93
84924;BME280;75286;52.218;5.180;2024-03-23T06:51:05;100924.13;;;6.30;94.56
84924;BME280;75286;52.218;5.180;2024-03-23T06:53:31;100924.63;;;6.33;93.92
84924;BME280;75286;52.218;5.180;2024-03-23T06:55:57;100928.19;;;6.40;93.58
84924;BME280;75286;52.218;5.180;2024-03-23T06:58:24;100928.03;;;6.42;94.04
84924;BME280;75286;52.218;5.180;2024-03-23T07:00:50;100933.06;;;6.51;93.36
84924;BME280;75286;52.218;5.180;2024-03-23T07:03:16;100933.25;;;6.58;93.20
84924;BME280;75286;52.218;5.180;2024-03-23T07:05:42;100936.16;;;6.63;93.73
84924;BME280;75286;52.218;5.180;2024-03-23T07:08:07;100921.22;;;6.58;93.37
84924;BME280;75286;52.218;5.180;2024-03-23T07:10:33;100935.09;;;6.74;93.29
84924;BME280;75286;52.218;5.180;2024-03-23T07:12:58;100929.00;;;6.83;92.93
84924;BME280;75286;52.218;5.180;2024-03-23T07:15:24;100933.53;;;6.89;93.81
84924;BME280;75286;52.218;5.180;2024-03-23T07:17:49;100923.41;;;6.87;92.62
84924;BME280;75286;52.218;5.180;2024-03-23T07:20:15;100930.97;;;6.97;91.81
84924;BME280;75286;52.218;5.180;2024-03-23T07:22:41;100929.38;;;7.04;92.28
84924;BME280;75286;52.218;5.180;2024-03-23T07:25:07;100936.81;;;7.15;92.00
84924;BME280;75286;52.218;5.180;2024-03-23T07:27:32;100944.69;;;7.22;90.52
84924;BME280;75286;52.218;5.180;2024-03-23T07:29:59;100939.06;;;7.26;91.14
84924;BME280;75286;52.218;5.180;2024-03-23T07:32:24;100931.06;;;7.37;90.54
84924;BME280;75286;52.218;5.180;2024-03-23T07:34:51;100937.19;;;7.44;87.80
84924;BME280;75286;52.218;5.180;2024-03-23T07:37:17;100941.88;;;7.57;88.42
84924;BME280;75286;52.218;5.180;2024-03-23T07:39:42;100948.78;;;7.65;88.40
84924;BME280;75286;52.218;5.180;2024-03-23T07:42:08;100937.19;;;7.69;87.38
84924;BME280;75286;52.218;5.180;2024-03-23T07:44:33;100947.31;;;7.78;87.54
84924;BME280;75286;52.218;5.180;2024-03-23T07:47:02;100933.84;;;7.76;86.27
84924;BME280;75286;52.218;5.180;2024-03-23T07:49:27;100942.38;;;7.77;87.01
84924;BME280;75286;52.218;5.180;2024-03-23T07:51:53;100936.88;;;7.80;85.65
84924;BME280;75286;52.218;5.180;2024-03-23T07:54:18;100924.81;;;7.89;85.35
84924;BME280;75286;52.218;5.180;2024-03-23T07:56:43;100927.41;;;7.89;85.26
84924;BME280;75286;52.218;5.180;2024-03-23T07:59:09;100926.25;;;7.91;84.42
84924;BME280;75286;52.218;5.180;2024-03-23T08:01:35;100931.41;;;7.99;84.62
84924;BME280;75286;52.218;5.180;2024-03-23T08:04:00;100924.16;;;7.95;84.06
84924;BME280;75286;52.218;5.180;2024-03-23T08:06:25;100921.75;;;7.93;84.11
84924;BME280;75286;52.218;5.180;2024-03-23T08:08:54;100930.09;;;7.95;84.32
84924;BME280;75286;52.218;5.180;2024-03-23T08:11:31;100933.31;;;7.97;83.22
84924;BME280;75286;52.218;5.180;2024-03-23T08:14:01;100923.19;;;8.04;83.53
84924;BME280;75286;52.218;5.180;2024-03-23T08:16:27;100933.78;;;8.17;82.40
84924;BME280;75286;52.218;5.180;2024-03-23T08:18:52;100933.59;;;8.18;83.24
84924;BME280;75286;52.218;5.180;2024-03-23T08:21:18;100918.00;;;8.20;82.69
84924;BME280;75286;52.218;5.180;2024-03-23T08:23:45;100919.09;;;8.25;81.93
84924;BME280;75286;52.218;5.180;2024-03-23T08:26:12;100919.94;;;8.34;80.51
84924;BME280;75286;52.218;5.180;2024-03-23T08:28:38;100928.59;;;8.41;79.09
84924;BME280;75286;52.218;5.180;2024-03-23T08:31:08;100931.81;;;8.35;79.01
84924;BME280;75286;52.218;5.180;2024-03-23T08:33:35;100932.00;;;8.34;79.61
84924;BME280;75286;52.218;5.180;2024-03-23T08:36:05;100922.66;;;8.24;80.23
84924;BME280;75286;52.218;5.180;2024-03-23T08:38:31;100925.88;;;8.26;79.69
84924;BME280;75286;52.218;5.180;2024-03-23T08:41:07;100936.66;;;8.22;78.63
84924;BME280;75286;52.218;5.180;2024-03-23T08:43:36;100935.06;;;8.21;77.80
84924;BME280;75286;52.218;5.180;2024-03-23T08:46:15;100937.78;;;8.19;77.06
84924;BME280;75286;52.218;5.180;2024-03-23T08:48:45;100936.03;;;8.28;76.43
84924;BME280;75286;52.218;5.180;2024-03-23T08:51:13;100917.16;;;8.36;76.70
84924;BME280;75286;52.218;5.180;2024-03-23T08:53:39;100921.50;;;8.35;76.29
84924;BME280;75286;52.218;5.180;2024-03-23T08:56:06;100909.44;;;8.36;76.16
84924;BME280;75286;52.218;5.180;2024-03-23T08:58:32;100928.59;;;8.41;76.83
84924;BME280;75286;52.218;5.180;2024-03-23T09:01:10;100937.25;;;8.48;76.93
84924;BME280;75286;52.218;5.180;2024-03-23T09:03:38;100936.31;;;8.49;77.75
84924;BME280;75286;52.218;5.180;2024-03-23T09:06:08;100936.75;;;8.61;78.41
84924;BME280;75286;52.218;5.180;2024-03-23T09:08:37;100917.38;;;8.65;77.36
84924;BME280;75286;52.218;5.180;2024-03-23T09:11:07;100913.19;;;8.64;76.25
84924;BME280;75286;52.218;5.180;2024-03-23T09:13:33;100917.44;;;8.57;75.06
84924;BME280;75286;52.218;5.180;2024-03-23T09:16:03;100914.19;;;8.63;75.49
84924;BME280;75286;52.218;5.180;2024-03-23T09:18:32;100921.56;;;8.74;76.71
84924;BME280;75286;52.218;5.180;2024-03-23T09:20:58;100903.94;;;8.86;76.82
84924;BME280;75286;52.218;5.180;2024-03-23T09:23:23;100903.84;;;9.02;76.56
84924;BME280;75286;52.218;5.180;2024-03-23T09:25:48;100919.09;;;9.12;75.26
84924;BME280;75286;52.218;5.180;2024-03-23T09:28:14;100924.13;;;9.05;76.09
84924;BME280;75286;52.218;5.180;2024-03-23T09:30:39;100927.28;;;8.92;76.68
84924;BME280;75286;52.218;5.180;2024-03-23T09:33:11;100923.25;;;8.90;76.05
84924;BME280;75286;52.218;5.180;2024-03-23T09:35:41;100921.22;;;8.77;75.83
84924;BME280;75286;52.218;5.180;2024-03-23T09:38:07;100908.56;;;8.59;75.69
84924;BME280;75286;52.218;5.180;2024-03-23T09:40:34;100914.78;;;8.73;76.32
84924;BME280;75286;52.218;5.180;2024-03-23T09:43:00;100926.19;;;8.79;74.99
84924;BME280;75286;52.218;5.180;2024-03-23T09:45:29;100919.34;;;8.63;76.09
84924;BME280;75286;52.218;5.180;2024-03-23T09:47:55;100923.88;;;8.53;76.77
84924;BME280;75286;52.218;5.180;2024-03-23T09:50:21;100913.31;;;8.32;77.60
84924;BME280;75286;52.218;5.180;2024-03-23T09:52:46;100919.31;;;8.16;77.71
84924;BME280;75286;52.218;5.180;2024-03-23T09:55:12;100912.53;;;8.07;77.80
84924;BME280;75286;52.218;5.180;2024-03-23T09:57:39;100915.47;;;8.04;78.18
84924;BME280;75286;52.218;5.180;2024-03-23T10:00:05;100917.38;;;8.10;77.50
84924;BME280;75286;52.218;5.180;2024-03-23T10:02:32;100916.22;;;8.20;77.79
84924;BME280;75286;52.218;5.180;2024-03-23T10:04:58;100911.72;;;8.22;78.18
84924;BME280;75286;52.218;5.180;2024-03-23T10:07:23;100931.19;;;8.25;77.13
84924;BME280;75286;52.218;5.180;2024-03-23T10:09:49;100923.28;;;8.26;78.16
84924;BME280;75286;52.218;5.180;2024-03-23T10:12:19;100920.09;;;8.33;79.01
84924;BME280;75286;52.218;5.180;2024-03-23T10:14:44;100911.56;;;8.32;77.36
84924;BME280;75286;52.218;5.180;2024-03-23T10:17:20;100923.63;;;8.40;78.55
84924;BME280;75286;52.218;5.180;2024-03-23T10:19:49;100922.97;;;8.46;78.92
84924;BME280;75286;52.218;5.180;2024-03-23T10:22:23;100920.19;;;8.47;78.50
84924;BME280;75286;52.218;5.180;2024-03-23T10:24:49;100931.94;;;8.50;78.65
84924;BME280;75286;52.218;5.180;2024-03-23T10:27:19;100920.06;;;8.41;76.33
84924;BME280;75286;52.218;5.180;2024-03-23T10:29:49;100911.97;;;8.52;76.81
84924;BME280;75286;52.218;5.180;2024-03-23T10:32:16;100912.88;;;8.67;75.86
84924;BME280;75286;52.218;5.180;2024-03-23T10:34:42;100917.97;;;8.83;75.32
84924;BME280;75286;52.218;5.180;2024-03-23T10:37:08;100922.44;;;8.89;74.10
84924;BME280;75286;52.218;5.180;2024-03-23T10:39:35;100916.03;;;8.85;74.27
84924;BME280;75286;52.218;5.180;2024-03-23T10:42:08;100897.59;;;8.96;71.93
84924;BME280;75286;52.218;5.180;2024-03-23T10:44:35;100914.97;;;9.02;70.08
84924;BME280;75286;52.218;5.180;2024-03-23T10:47:02;100910.59;;;9.03;70.74
84924;BME280;75286;52.218;5.180;2024-03-23T10:49:35;100890.66;;;9.20;71.32
84924;BME280;75286;52.218;5.180;2024-03-23T10:52:02;100900.72;;;9.37;70.49
84924;BME280;75286;52.218;5.180;2024-03-23T10:54:30;100902.13;;;9.40;70.07
84924;BME280;75286;52.218;5.180;2024-03-23T10:59:37;100886.81;;;9.61;69.25
84924;BME280;75286;52.218;5.180;2024-03-23T11:02:03;100905.16;;;9.81;71.10
84924;BME280;75286;52.218;5.180;2024-03-23T11:04:36;100900.41;;;10.07;68.62
84924;BME280;75286;52.218;5.180;2024-03-23T11:10:02;100896.94;;;10.44;68.24
84924;BME280;75286;52.218;5.180;2024-03-23T11:12:29;100901.34;;;10.29;67.17
84924;BME280;75286;52.218;5.180;2024-03-23T11:15:00;100901.88;;;10.24;68.07
84924;BME280;75286;52.218;5.180;2024-03-23T11:17:26;100901.59;;;10.34;67.64
84924;BME280;75286;52.218;5.180;2024-03-23T11:25:03;100896.81;;;10.82;63.94
84924;BME280;75286;52.218;5.180;2024-03-23T11:27:28;100903.72;;;10.96;64.04
84924;BME280;75286;52.218;5.180;2024-03-23T11:29:54;100889.50;;;11.06;64.72
84924;BME280;75286;52.218;5.180;2024-03-23T11:32:19;100893.34;;;11.32;64.01
84924;BME280;75286;52.218;5.180;2024-03-23T11:34:44;100903.31;;;11.35;62.62
84924;BME280;75286;52.218;5.180;2024-03-23T11:37:10;100887.03;;;10.98;61.85
84924;BME280;75286;52.218;5.180;2024-03-23T11:39:35;100885.44;;;10.97;61.54
84924;BME280;75286;52.218;5.180;2024-03-23T11:42:01;100883.88;;;10.82;62.02
84924;BME280;75286;52.218;5.180;2024-03-23T11:44:26;100880.44;;;10.60;61.71
84924;BME280;75286;52.218;5.180;2024-03-23T11:46:52;100890.84;;;10.66;62.36
84924;BME280;75286;52.218;5.180;2024-03-23T11:49:24;100890.28;;;10.86;63.04
84924;BME280;75286;52.218;5.180;2024-03-23T11:51:51;100887.59;;;11.15;62.94
84924;BME280;75286;52.218;5.180;2024-03-23T11:54:20;100880.50;;;11.24;62.76
84924;BME280;75286;52.218;5.180;2024-03-23T11:57:01;100887.94;;;11.54;62.79
84924;BME280;75286;52.218;5.180;2024-03-23T12:01:59;100891.91;;;11.29;60.55
84924;BME280;75286;52.218;5.180;2024-03-23T12:04:27;100887.28;;;11.03;59.95
84924;BME280;75286;52.218;5.180;2024-03-23T12:07:10;100886.81;;;10.79;61.12
84924;BME280;75286;52.218;5.180;2024-03-23T12:09:36;100870.09;;;10.60;61.38
84924;BME280;75286;52.218;5.180;2024-03-23T12:12:15;100873.69;;;10.44;61.36
84924;BME280;75286;52.218;5.180;2024-03-23T12:14:45;100873.50;;;10.46;61.45
84924;BME280;75286;52.218;5.180;2024-03-23T12:17:12;100864.06;;;10.53;61.86
84924;BME280;75286;52.218;5.180;2024-03-23T12:19:37;100864.16;;;10.59;62.43
84924;BME280;75286;52.218;5.180;2024-03-23T12:22:04;100865.00;;;10.66;63.12
84924;BME280;75286;52.218;5.180;2024-03-23T12:24:31;100865.19;;;10.65;61.37
84924;BME280;75286;52.218;5.180;2024-03-23T12:27:03;100865.38;;;10.63;60.07
84924;BME280;75286;52.218;5.180;2024-03-23T12:29:30;100861.25;;;10.69;60.98
84924;BME280;75286;52.218;5.180;2024-03-23T12:31:59;100871.47;;;10.77;61.78
84924;BME280;75286;52.218;5.180;2024-03-23T12:34:25;100856.97;;;10.97;61.79
84924;BME280;75286;52.218;5.180;2024-03-23T12:36:50;100852.50;;;11.27;61.05
84924;BME280;75286;52.218;5.180;2024-03-23T12:39:15;100851.47;;;11.49;59.44
84924;BME280;75286;52.218;5.180;2024-03-23T12:41:41;100844.78;;;11.62;57.28
84924;BME280;75286;52.218;5.180;2024-03-23T12:44:06;100841.44;;;11.68;56.06
84924;BME280;75286;52.218;5.180;2024-03-23T12:46:33;100834.22;;;11.84;56.31
84924;BME280;75286;52.218;5.180;2024-03-23T12:48:59;100850.22;;;11.94;56.19
84924;BME280;75286;52.218;5.180;2024-03-23T12:51:24;100850.31;;;12.14;56.60
84924;BME280;75286;52.218;5.180;2024-03-23T12:53:50;100837.59;;;12.19;55.81
84924;BME280;75286;52.218;5.180;2024-03-23T12:56:15;100843.97;;;12.23;55.10
84924;BME280;75286;52.218;5.180;2024-03-23T12:58:41;100848.91;;;12.12;54.45
84924;BME280;75286;52.218;5.180;2024-03-23T13:01:06;100840.69;;;12.02;53.61
84924;BME280;75286;52.218;5.180;2024-03-23T13:03:31;100853.75;;;11.87;53.48
84924;BME280;75286;52.218;5.180;2024-03-23T13:05:57;100827.06;;;11.65;55.80
84924;BME280;75286;52.218;5.180;2024-03-23T13:08:22;100841.81;;;11.65;56.30
84924;BME280;75286;52.218;5.180;2024-03-23T13:10:51;100831.97;;;11.81;54.63
84924;BME280;75286;52.218;5.180;2024-03-23T13:13:17;100836.19;;;11.82;53.81
84924;BME280;75286;52.218;5.180;2024-03-23T13:15:42;100838.94;;;11.81;53.40
84924;BME280;75286;52.218;5.180;2024-03-23T13:18:07;100845.59;;;11.90;54.11
84924;BME280;75286;52.218;5.180;2024-03-23T13:20:35;100831.88;;;11.96;54.85
84924;BME280;75286;52.218;5.180;2024-03-23T13:23:00;100825.75;;;12.10;54.48
84924;BME280;75286;52.218;5.180;2024-03-23T13:25:26;100823.38;;;12.09;55.46
84924;BME280;75286;52.218;5.180;2024-03-23T13:27:51;100835.59;;;12.21;55.18
84924;BME280;75286;52.218;5.180;2024-03-23T13:30:16;100827.84;;;11.87;55.02
84924;BME280;75286;52.218;5.180;2024-03-23T13:32:42;100839.78;;;11.32;56.82
84924;BME280;75286;52.218;5.180;2024-03-23T13:35:07;100840.84;;;10.95;59.01
84924;BME280;75286;52.218;5.180;2024-03-23T13:37:33;100830.41;;;10.67;60.42
84924;BME280;75286;52.218;5.180;2024-03-23T13:39:59;100850.94;;;10.54;62.02
84924;BME280;75286;52.218;5.180;2024-03-23T13:42:24;100835.03;;;10.36;61.37
84924;BME280;75286;52.218;5.180;2024-03-23T13:44:51;100822.66;;;10.17;59.90
84924;BME280;75286;52.218;5.180;2024-03-23T13:47:16;100826.81;;;10.32;60.07
84924;BME280;75286;52.218;5.180;2024-03-23T13:49:41;100816.00;;;10.58;59.09
84924;BME280;75286;52.218;5.180;2024-03-23T13:52:07;100808.38;;;10.93;58.98
84924;BME280;75286;52.218;5.180;2024-03-23T13:54:32;100809.88;;;11.30;59.14
84924;BME280;75286;52.218;5.180;2024-03-23T13:56:58;100813.00;;;11.46;56.64
84924;BME280;75286;52.218;5.180;2024-03-23T13:59:23;100816.06;;;11.56;57.30